createdAt,value
2023-04-09T00:00:44.846Z,116.75
2023-04-09T00:03:12.415Z,115.25
2023-04-09T00:05:40.897Z,157.18
2023-04-09T00:08:08.703Z,120.20
2023-04-09T00:10:36.285Z,114.75
2023-04-09T00:13:03.471Z,142.45
2023-04-09T00:15:31.740Z,133.27
2023-04-09T00:17:59.970Z,114.53
2023-04-09T00:20:27.349Z,102.28
2023-04-09T00:22:55.612Z,119.63
2023-04-09T00:25:22.747Z,121.85
2023-04-09T00:27:50.239Z,105.68
2023-04-09T00:30:17.560Z,155.65
2023-04-09T00:32:44.747Z,103.32
2023-04-09T00:35:12.485Z,146.13
2023-04-09T00:37:39.675Z,149.65
2023-04-09T00:40:07.679Z,110.13
2023-04-09T00:42:36.088Z,129.90
2023-04-09T00:45:06.981Z,128.75
2023-04-09T00:47:35.513Z,101.97
2023-04-09T00:50:03.639Z,161.57
2023-04-09T00:52:31.073Z,156.93
2023-04-09T00:55:01.516Z,144.02
2023-04-09T00:57:31.338Z,152.38
2023-04-09T00:59:58.594Z,103.55
2023-04-09T01:02:26.554Z,117.43
2023-04-09T01:04:53.846Z,119.88
2023-04-09T01:07:47.506Z,142.10
2023-04-09T01:10:59.796Z,143.77
2023-04-09T01:16:19.295Z,122.72
2023-04-09T01:19:21.674Z,100.93
2023-04-09T01:21:49.501Z,93.63
2023-04-09T01:24:24.611Z,113.70
2023-04-09T01:26:52.133Z,108.85
2023-04-09T01:29:21.541Z,111.95
2023-04-09T01:31:49.500Z,107.55
2023-04-09T01:34:18.348Z,132.07
2023-04-09T01:36:51.376Z,113.70
2023-04-09T01:39:19.380Z,143.95
2023-04-09T01:41:47.195Z,149.93
2023-04-09T01:44:14.760Z,120.57
2023-04-09T01:46:42.460Z,116.88
2023-04-09T01:49:10.516Z,131.05
2023-04-09T01:51:38.771Z,148.05
2023-04-09T01:54:05.796Z,123.10
2023-04-09T01:56:47.354Z,127.00
2023-04-09T01:59:14.978Z,136.90
2023-04-09T02:01:53.518Z,149.52
2023-04-09T02:04:33.604Z,140.18
2023-04-09T02:07:44.697Z,145.85
2023-04-09T02:10:13.753Z,141.95
2023-04-09T02:12:45.380Z,155.60
2023-04-09T02:15:13.649Z,151.68
2023-04-09T02:17:40.999Z,164.35
2023-04-09T02:20:08.784Z,159.80
2023-04-09T02:22:36.242Z,161.73
2023-04-09T02:25:03.851Z,137.60
2023-04-09T02:27:30.945Z,154.40
2023-04-09T02:29:58.054Z,150.73
2023-04-09T02:32:25.300Z,177.98
2023-04-09T02:34:52.361Z,142.38
2023-04-09T02:37:19.395Z,159.63
2023-04-09T02:39:46.491Z,148.07
2023-04-09T02:42:13.724Z,136.65
2023-04-09T02:44:40.752Z,148.60
2023-04-09T02:47:07.813Z,167.57
2023-04-09T02:49:34.885Z,157.38
2023-04-09T02:52:01.883Z,183.13
2023-04-09T02:54:28.905Z,154.80
2023-04-09T02:56:56.720Z,169.95
2023-04-09T02:59:23.794Z,169.50
2023-04-09T03:01:51.489Z,187.35
2023-04-09T03:04:19.150Z,187.82
2023-04-09T03:06:46.354Z,199.63
2023-04-09T03:09:13.980Z,179.48
2023-04-09T03:11:41.232Z,169.48
2023-04-09T03:14:08.603Z,181.38
2023-04-09T03:16:35.723Z,219.55
2023-04-09T03:19:02.861Z,164.57
2023-04-09T03:21:30.220Z,152.75
2023-04-09T03:23:57.311Z,150.93
2023-04-09T03:26:24.346Z,167.13
2023-04-09T03:28:51.627Z,154.13
2023-04-09T03:31:19.133Z,155.07
2023-04-09T03:33:46.295Z,151.63
2023-04-09T03:36:13.542Z,176.18
2023-04-09T03:38:40.639Z,142.02
2023-04-09T03:41:07.735Z,157.20
2023-04-09T03:43:34.792Z,161.45
2023-04-09T03:46:01.873Z,168.32
2023-04-09T03:48:28.915Z,168.40
2023-04-09T03:50:56.148Z,160.65
2023-04-09T03:53:23.135Z,146.13
2023-04-09T03:55:50.193Z,153.82
2023-04-09T03:58:17.594Z,158.45
2023-04-09T04:00:44.665Z,172.90
2023-04-09T04:03:12.226Z,169.52
2023-04-09T04:05:39.456Z,174.65
2023-04-09T04:08:06.481Z,172.98
2023-04-09T04:10:36.707Z,172.88
2023-04-09T04:13:03.939Z,178.48
2023-04-09T04:15:31.090Z,176.35
2023-04-09T04:17:58.189Z,171.07
2023-04-09T04:20:25.415Z,146.98
2023-04-09T04:22:52.859Z,197.43
2023-04-09T04:25:19.878Z,165.90
2023-04-09T04:27:47.483Z,185.50
2023-04-09T04:30:14.548Z,181.93
2023-04-09T04:32:41.975Z,154.98
2023-04-09T04:35:09.359Z,177.85
2023-04-09T04:37:36.467Z,176.30
2023-04-09T04:40:05.323Z,158.00
2023-04-09T04:42:32.472Z,146.82
2023-04-09T04:45:00.015Z,149.15
2023-04-09T04:47:27.506Z,170.40
2023-04-09T04:49:54.784Z,174.10
2023-04-09T04:52:21.950Z,175.75
2023-04-09T04:54:49.094Z,164.75
2023-04-09T04:57:16.228Z,145.80
2023-04-09T04:59:43.316Z,151.43
2023-04-09T05:02:10.511Z,158.98
2023-04-09T05:04:37.584Z,147.13
2023-04-09T05:07:04.719Z,143.02
2023-04-09T05:09:32.104Z,142.23
2023-04-09T05:12:02.950Z,134.38
2023-04-09T05:14:30.026Z,134.73
2023-04-09T05:16:57.256Z,137.18
2023-04-09T05:19:24.416Z,132.13
2023-04-09T05:21:51.507Z,155.65
2023-04-09T05:24:18.717Z,121.93
2023-04-09T05:26:46.102Z,123.45
2023-04-09T05:29:13.567Z,122.20
2023-04-09T05:31:41.096Z,120.47
2023-04-09T05:34:08.146Z,126.57
2023-04-09T05:36:35.307Z,122.95
2023-04-09T05:39:02.489Z,119.55
2023-04-09T05:41:30.087Z,114.88
2023-04-09T05:43:58.831Z,125.15
2023-04-09T05:46:27.648Z,114.28
2023-04-09T05:48:55.088Z,97.00
2023-04-09T05:51:22.132Z,108.32
2023-04-09T05:53:49.721Z,112.88
2023-04-09T05:56:17.353Z,111.40
2023-04-09T05:58:44.553Z,105.40
2023-04-09T06:01:11.664Z,97.10
2023-04-09T06:03:38.934Z,104.22
2023-04-09T06:06:06.391Z,93.97
2023-04-09T06:08:33.510Z,103.82
2023-04-09T06:11:00.589Z,98.45
2023-04-09T06:13:27.672Z,100.97
2023-04-09T06:15:54.986Z,98.38
2023-04-09T06:18:22.084Z,106.82
2023-04-09T06:20:49.736Z,100.00
2023-04-09T06:23:17.321Z,103.85
2023-04-09T06:25:44.518Z,93.40
2023-04-09T06:28:11.620Z,101.28
2023-04-09T06:30:38.765Z,95.57
2023-04-09T06:33:06.076Z,86.80
2023-04-09T06:35:33.396Z,93.47
2023-04-09T06:38:00.540Z,89.40
2023-04-09T06:40:27.933Z,91.50
2023-04-09T06:42:55.317Z,85.30
2023-04-09T06:45:25.384Z,87.18
2023-04-09T06:47:53.356Z,87.10
2023-04-09T06:50:20.904Z,83.60
2023-04-09T06:52:50.004Z,74.03
2023-04-09T06:55:17.577Z,81.55
2023-04-09T06:57:44.672Z,79.32
2023-04-09T07:00:12.725Z,71.35
2023-04-09T07:02:41.486Z,73.60
2023-04-09T07:05:09.480Z,68.68
2023-04-09T07:07:36.844Z,73.28
2023-04-09T07:10:04.211Z,82.10
2023-04-09T07:12:33.291Z,72.55
2023-04-09T07:15:02.598Z,69.57
2023-04-09T07:17:31.251Z,70.15
2023-04-09T07:19:58.525Z,71.00
2023-04-09T07:22:27.289Z,69.70
2023-04-09T07:24:55.145Z,64.45
2023-04-09T07:27:31.708Z,66.00
2023-04-09T07:29:59.812Z,63.63
2023-04-09T07:32:31.045Z,61.85
2023-04-09T07:34:59.540Z,62.58
2023-04-09T07:37:27.748Z,73.10
2023-04-09T07:39:54.902Z,61.08
2023-04-09T07:42:22.542Z,60.03
2023-04-09T07:44:49.998Z,58.67
2023-04-09T07:47:20.930Z,63.65
2023-04-09T07:49:49.663Z,57.92
2023-04-09T07:52:17.918Z,59.08
2023-04-09T07:54:48.565Z,54.67
2023-04-09T07:57:16.647Z,56.00
2023-04-09T07:59:43.857Z,48.53
2023-04-09T08:02:15.537Z,49.03
2023-04-09T08:04:43.092Z,45.88
2023-04-09T08:07:10.736Z,50.97
2023-04-09T08:09:37.939Z,47.50
2023-04-09T08:12:05.670Z,46.63
2023-04-09T08:14:33.581Z,46.50
2023-04-09T08:17:01.716Z,46.58
2023-04-09T08:19:28.968Z,43.03
2023-04-09T08:21:57.028Z,48.67
2023-04-09T08:24:24.160Z,40.80
2023-04-09T08:26:51.351Z,43.65
2023-04-09T08:29:18.741Z,40.55
2023-04-09T08:31:46.193Z,44.00
2023-04-09T08:34:15.204Z,42.25
2023-04-09T08:36:45.835Z,45.47
2023-04-09T08:39:13.244Z,43.70
2023-04-09T08:41:45.901Z,48.63
2023-04-09T08:44:13.481Z,45.92
2023-04-09T08:46:40.864Z,45.95
2023-04-09T08:49:10.331Z,42.42
2023-04-09T08:51:38.668Z,42.60
2023-04-09T08:54:06.641Z,41.03
2023-04-09T08:56:33.877Z,40.28
2023-04-09T08:59:01.014Z,37.63
2023-04-09T09:01:30.031Z,46.67
2023-04-09T09:04:04.522Z,39.05
2023-04-09T09:06:42.071Z,35.72
2023-04-09T09:09:20.065Z,41.08
2023-04-09T09:11:52.070Z,37.75
2023-04-09T09:14:20.343Z,42.50
2023-04-09T09:16:56.938Z,41.67
2023-04-09T09:19:24.603Z,36.50
2023-04-09T09:22:03.561Z,33.08
2023-04-09T09:24:32.571Z,35.80
2023-04-09T09:27:01.018Z,36.25
2023-04-09T09:29:28.204Z,28.35
2023-04-09T09:31:58.967Z,31.73
2023-04-09T09:34:26.257Z,31.30
2023-04-09T09:36:53.424Z,30.05
2023-04-09T09:39:22.205Z,34.30
2023-04-09T09:42:07.691Z,27.17
2023-04-09T09:44:35.348Z,33.45
2023-04-09T09:47:04.348Z,31.05
2023-04-09T09:49:32.763Z,34.13
2023-04-09T09:52:05.776Z,30.50
2023-04-09T09:54:42.334Z,31.95
2023-04-09T09:57:13.527Z,31.27
2023-04-09T09:59:52.236Z,37.42
2023-04-09T10:02:22.556Z,33.72
2023-04-09T10:04:52.923Z,31.65
2023-04-09T10:07:24.749Z,33.80
2023-04-09T10:12:27.279Z,29.10
2023-04-09T10:14:58.673Z,31.60
2023-04-09T10:17:26.869Z,26.73
2023-04-09T10:20:10.802Z,30.80
2023-04-09T10:22:39.478Z,32.75
2023-04-09T10:25:12.153Z,36.97
2023-04-09T10:27:46.434Z,28.75
2023-04-09T10:30:36.819Z,30.27
2023-04-09T10:33:17.304Z,33.00
2023-04-09T10:35:49.548Z,28.55
2023-04-09T10:38:17.006Z,27.17
2023-04-09T10:40:49.653Z,32.65
2023-04-09T10:43:22.319Z,31.42
2023-04-09T10:45:54.311Z,28.77
2023-04-09T10:48:26.814Z,29.25
2023-04-09T10:50:54.037Z,29.63
2023-04-09T10:53:26.146Z,35.42
2023-04-09T10:55:54.460Z,30.08
2023-04-09T10:58:21.646Z,29.48
2023-04-09T11:00:51.411Z,27.25
2023-04-09T11:03:24.454Z,29.48
2023-04-09T11:05:57.972Z,30.15
2023-04-09T11:08:29.181Z,28.90
2023-04-09T11:10:59.701Z,32.13
2023-04-09T11:13:31.491Z,37.83
2023-04-09T11:16:01.688Z,28.98
2023-04-09T11:18:31.802Z,28.52
2023-04-09T11:21:01.600Z,28.77
2023-04-09T11:23:32.070Z,29.35
2023-04-09T11:25:59.800Z,32.38
2023-04-09T11:28:27.468Z,26.75
2023-04-09T11:30:54.673Z,27.15
2023-04-09T11:33:22.705Z,29.98
2023-04-09T11:35:51.193Z,24.00
2023-04-09T11:38:18.584Z,26.83
2023-04-09T11:40:50.998Z,29.15
2023-04-09T11:43:21.244Z,22.77
2023-04-09T11:45:49.692Z,26.38
2023-04-09T11:48:22.055Z,24.52
2023-04-09T11:50:49.770Z,30.05
2023-04-09T11:53:21.499Z,23.10
2023-04-09T11:55:51.487Z,27.08
2023-04-09T11:58:19.215Z,24.67
2023-04-09T12:00:47.264Z,36.22
2023-04-09T12:03:16.570Z,23.60
2023-04-09T12:05:50.991Z,22.33
2023-04-09T12:08:24.233Z,25.17
2023-04-09T12:10:54.708Z,22.33
2023-04-09T12:13:22.380Z,25.03
2023-04-09T12:15:50.309Z,22.55
2023-04-09T12:18:23.678Z,22.25
2023-04-09T12:20:51.328Z,27.70
2023-04-09T12:23:19.789Z,24.92
2023-04-09T12:25:48.322Z,25.30
2023-04-09T12:28:18.901Z,24.60
2023-04-09T12:30:47.352Z,22.35
2023-04-09T12:33:14.634Z,22.23
2023-04-09T12:35:42.015Z,22.20
2023-04-09T12:38:13.032Z,23.25
2023-04-09T12:40:47.176Z,21.70
2023-04-09T12:43:19.761Z,22.27
2023-04-09T12:45:47.442Z,21.88
2023-04-09T12:48:15.910Z,20.38
2023-04-09T12:50:43.083Z,25.00
2023-04-09T12:53:10.472Z,23.17
2023-04-09T12:55:37.554Z,22.60
2023-04-09T12:58:04.712Z,21.45
2023-04-09T13:00:33.557Z,20.27
2023-04-09T13:03:02.110Z,20.90
2023-04-09T13:05:31.411Z,25.58
2023-04-09T13:07:58.935Z,21.25
2023-04-09T13:10:26.049Z,19.95
2023-04-09T13:12:54.047Z,21.35
2023-04-09T13:15:22.115Z,19.52
2023-04-09T13:17:49.781Z,21.52
2023-04-09T13:20:17.241Z,19.70
2023-04-09T13:22:48.926Z,21.58
2023-04-09T13:25:17.066Z,19.35
2023-04-09T13:27:44.440Z,16.10
2023-04-09T13:30:12.022Z,19.13
2023-04-09T13:32:39.825Z,21.83
2023-04-09T13:35:07.703Z,19.55
2023-04-09T13:37:35.284Z,18.75
2023-04-09T13:40:02.499Z,16.38
2023-04-09T13:42:29.913Z,18.17
2023-04-09T13:44:57.714Z,18.65
2023-04-09T13:47:25.214Z,21.23
2023-04-09T13:49:53.355Z,19.17
2023-04-09T13:52:20.958Z,16.80
2023-04-09T13:54:49.432Z,18.30
2023-04-09T13:57:17.218Z,16.50
2023-04-09T13:59:44.699Z,15.63
2023-04-09T14:02:12.251Z,16.25
2023-04-09T14:04:39.646Z,17.85
2023-04-09T14:07:07.357Z,16.33
2023-04-09T14:09:34.612Z,14.32
2023-04-09T14:12:02.303Z,16.38
2023-04-09T14:14:29.764Z,17.75
2023-04-09T14:16:57.265Z,17.10
2023-04-09T14:19:24.719Z,18.25
2023-04-09T14:21:53.392Z,19.10
2023-04-09T14:24:24.002Z,15.77
2023-04-09T14:26:53.596Z,15.25
2023-04-09T14:29:22.624Z,14.48
2023-04-09T14:31:50.048Z,17.63
2023-04-09T14:34:17.272Z,15.82
2023-04-09T14:36:44.751Z,14.27
2023-04-09T14:39:12.287Z,15.90
2023-04-09T14:41:39.513Z,16.55
2023-04-09T14:44:09.620Z,15.13
2023-04-09T14:46:39.141Z,16.27
2023-04-09T14:49:06.400Z,16.63
2023-04-09T14:51:33.884Z,13.98
2023-04-09T14:54:02.038Z,13.80
2023-04-09T14:56:29.228Z,53.03
2023-04-09T14:58:56.287Z,16.92
2023-04-09T15:01:23.375Z,17.00
2023-04-09T15:03:50.795Z,14.70
2023-04-09T15:06:18.455Z,24.05
2023-04-09T15:08:46.145Z,19.58
2023-04-09T15:11:17.374Z,19.30
2023-04-09T15:13:44.927Z,16.10
2023-04-09T15:16:21.391Z,26.02
2023-04-09T15:18:51.993Z,15.55
2023-04-09T15:21:19.665Z,15.93
2023-04-09T15:23:47.171Z,16.08
2023-04-09T15:26:14.285Z,21.15
2023-04-09T15:28:41.469Z,18.25
2023-04-09T15:31:08.676Z,16.42
2023-04-09T15:33:35.759Z,16.70
2023-04-09T15:36:02.975Z,16.65
2023-04-09T15:38:30.349Z,15.77
2023-04-09T15:40:57.801Z,17.38
2023-04-09T15:43:25.004Z,15.95
2023-04-09T15:45:52.204Z,14.95
2023-04-09T15:48:19.490Z,16.30
2023-04-09T15:50:46.704Z,16.52
2023-04-09T15:53:15.690Z,15.73
2023-04-09T15:55:42.764Z,15.90
2023-04-09T15:58:09.920Z,14.65
2023-04-09T16:00:37.041Z,14.68
2023-04-09T16:03:04.582Z,17.75
2023-04-09T16:05:31.685Z,18.30
2023-04-09T16:07:59.980Z,15.32
2023-04-09T16:10:27.512Z,15.70
2023-04-09T16:12:54.667Z,16.20
2023-04-09T16:15:21.743Z,17.05
2023-04-09T16:17:48.874Z,16.80
2023-04-09T16:20:16.075Z,17.73
2023-04-09T16:22:43.227Z,15.82
2023-04-09T16:25:10.286Z,15.23
2023-04-09T16:27:37.493Z,16.75
2023-04-09T16:30:05.406Z,16.85
2023-04-09T16:32:32.584Z,16.30
2023-04-09T16:35:00.811Z,19.13
2023-04-09T16:37:29.206Z,16.75
2023-04-09T16:39:57.251Z,18.23
2023-04-09T16:42:26.798Z,18.63
2023-04-09T16:44:54.421Z,18.52
2023-04-09T16:47:21.745Z,20.58
2023-04-09T16:49:48.772Z,17.10
2023-04-09T16:52:16.167Z,17.98
2023-04-09T16:54:43.255Z,16.25
2023-04-09T16:57:10.387Z,19.13
2023-04-09T16:59:37.701Z,20.65
2023-04-09T17:02:04.962Z,20.33
2023-04-09T17:04:34.482Z,24.88
2023-04-09T17:07:01.876Z,20.58
2023-04-09T17:09:30.518Z,23.05
2023-04-09T17:11:58.600Z,19.45
2023-04-09T17:14:25.734Z,18.27
2023-04-09T17:16:53.914Z,20.67
2023-04-09T17:19:21.186Z,24.17
2023-04-09T17:21:48.638Z,23.60
2023-04-09T17:24:15.877Z,24.10
2023-04-09T17:26:43.044Z,26.52
2023-04-09T17:29:10.853Z,23.98
2023-04-09T17:31:38.714Z,23.63
2023-04-09T17:34:05.812Z,24.90
2023-04-09T17:36:35.425Z,28.45
2023-04-09T17:39:03.122Z,29.65
2023-04-09T17:41:30.680Z,27.48
2023-04-09T17:44:00.891Z,26.65
2023-04-09T17:46:28.685Z,33.53
2023-04-09T17:48:56.209Z,34.63
2023-04-09T17:51:23.646Z,32.17
2023-04-09T17:53:53.686Z,27.52
2023-04-09T17:56:22.760Z,27.75
2023-04-09T17:58:49.897Z,27.38
2023-04-09T18:01:17.337Z,28.40
2023-04-09T18:03:50.001Z,28.00
2023-04-09T18:06:18.177Z,25.23
2023-04-09T18:08:45.568Z,26.40
2023-04-09T18:11:15.533Z,25.65
2023-04-09T18:13:42.809Z,31.38
2023-04-09T18:16:11.985Z,29.45
2023-04-09T18:18:39.396Z,26.65
2023-04-09T18:21:06.653Z,28.80
2023-04-09T18:23:34.056Z,32.40
2023-04-09T18:26:04.237Z,29.23
2023-04-09T18:28:31.413Z,31.67
2023-04-09T18:30:58.908Z,28.00
2023-04-09T18:33:27.111Z,33.40
2023-04-09T18:35:54.592Z,31.27
2023-04-09T18:38:21.921Z,30.10
2023-04-09T18:40:49.047Z,31.98
2023-04-09T18:43:19.239Z,34.08
2023-04-09T18:45:46.441Z,30.75
2023-04-09T18:48:18.410Z,30.30
2023-04-09T18:50:46.196Z,33.00
2023-04-09T18:53:13.495Z,31.60
2023-04-09T18:55:40.996Z,32.38
2023-04-09T18:58:15.777Z,30.77
2023-04-09T19:00:46.362Z,30.92
2023-04-09T19:03:13.828Z,30.75
2023-04-09T19:05:41.309Z,28.55
2023-04-09T19:08:09.988Z,32.95
2023-04-09T19:10:37.439Z,31.23
2023-04-09T19:13:04.841Z,27.50
2023-04-09T19:15:31.937Z,30.38
2023-04-09T19:17:59.074Z,30.17
2023-04-09T19:20:26.380Z,31.17
2023-04-09T19:22:54.521Z,35.80
2023-04-09T19:25:22.871Z,32.47
2023-04-09T19:27:50.310Z,34.00
2023-04-09T19:30:17.632Z,32.25
2023-04-09T19:32:45.670Z,34.10
2023-04-09T19:35:12.909Z,31.02
2023-04-09T19:37:40.444Z,33.55
2023-04-09T19:40:08.250Z,32.45
2023-04-09T19:42:35.320Z,33.05
2023-04-09T19:45:02.485Z,33.40
2023-04-09T19:47:29.706Z,28.65
2023-04-09T19:49:57.321Z,29.88
2023-04-09T19:52:25.354Z,30.45
2023-04-09T19:54:56.484Z,31.63
2023-04-09T19:57:23.878Z,33.17
2023-04-09T19:59:54.279Z,31.33
2023-04-09T20:02:21.521Z,32.53
2023-04-09T20:04:50.693Z,30.88
2023-04-09T20:07:18.510Z,32.47
2023-04-09T20:09:47.239Z,33.38
2023-04-09T20:12:14.331Z,30.85
2023-04-09T20:14:41.793Z,32.83
2023-04-09T20:17:10.297Z,31.27
2023-04-09T20:19:37.938Z,40.20
2023-04-09T20:22:06.020Z,35.95
2023-04-09T20:24:35.644Z,48.75
2023-04-09T20:27:06.971Z,38.70
2023-04-09T20:29:34.159Z,38.63
2023-04-09T20:32:02.317Z,36.67
2023-04-09T20:34:33.122Z,39.63
2023-04-09T20:37:00.762Z,43.00
2023-04-09T20:39:30.114Z,32.22
2023-04-09T20:42:00.908Z,32.78
2023-04-09T20:44:28.894Z,35.30
2023-04-09T20:46:56.745Z,35.72
2023-04-09T20:49:26.173Z,38.03
2023-04-09T20:51:56.892Z,32.80
2023-04-09T20:54:31.321Z,38.03
2023-04-09T20:57:00.550Z,37.38
2023-04-09T20:59:28.429Z,38.42
2023-04-09T21:01:55.884Z,36.13
2023-04-09T21:04:24.402Z,37.10
2023-04-09T21:06:53.223Z,31.75
2023-04-09T21:09:20.742Z,37.70
2023-04-09T21:11:51.435Z,37.28
2023-04-09T21:14:23.029Z,30.35
2023-04-09T21:17:01.905Z,36.10
2023-04-09T21:19:34.447Z,36.72
2023-04-09T21:22:05.868Z,34.53
2023-04-09T21:27:09.130Z,31.75
2023-04-09T21:29:36.689Z,29.20
2023-04-09T21:32:03.762Z,37.08
2023-04-09T21:34:31.578Z,36.47
2023-04-09T21:37:01.640Z,34.00
2023-04-09T21:39:33.817Z,32.88
2023-04-09T21:42:08.803Z,37.17
2023-04-09T21:44:42.604Z,35.03
2023-04-09T21:47:14.399Z,33.38
2023-04-09T21:49:44.532Z,38.15
2023-04-09T21:52:25.018Z,37.13
2023-04-09T21:55:01.261Z,40.70
2023-04-09T21:57:28.491Z,42.58
2023-04-09T21:59:56.019Z,36.78
2023-04-09T22:02:27.375Z,37.72
2023-04-09T22:04:54.992Z,39.03
2023-04-09T22:07:22.150Z,32.88
2023-04-09T22:09:49.223Z,39.03
2023-04-09T22:12:16.666Z,38.80
2023-04-09T22:14:44.869Z,39.35
2023-04-09T22:17:12.245Z,37.92
2023-04-09T22:19:39.367Z,39.53
2023-04-09T22:22:06.411Z,36.45
2023-04-09T22:24:33.876Z,40.22
2023-04-09T22:27:01.647Z,41.65
2023-04-09T22:29:30.028Z,37.55
2023-04-09T22:31:58.256Z,42.65
2023-04-09T22:34:26.112Z,41.05
2023-04-09T22:36:53.209Z,40.08
2023-04-09T22:39:21.446Z,40.25
2023-04-09T22:41:48.702Z,37.13
2023-04-09T22:44:15.762Z,41.90
2023-04-09T22:46:42.895Z,38.72
2023-04-09T22:49:10.596Z,38.88
2023-04-09T22:51:40.202Z,36.63
2023-04-09T22:54:09.573Z,38.70
2023-04-09T22:56:36.778Z,37.50
2023-04-09T22:59:04.025Z,40.92
2023-04-09T23:01:31.589Z,40.80
2023-04-09T23:03:58.737Z,36.53
2023-04-09T23:06:25.865Z,43.15
2023-04-09T23:08:53.206Z,42.72
2023-04-09T23:11:21.189Z,43.13
2023-04-09T23:13:48.626Z,40.97
2023-04-09T23:16:15.886Z,39.20
2023-04-09T23:18:44.026Z,38.90
2023-04-09T23:21:11.690Z,46.83
2023-04-09T23:23:39.380Z,42.42
2023-04-09T23:26:06.886Z,40.92
2023-04-09T23:28:33.999Z,38.63
2023-04-09T23:31:01.261Z,44.92
2023-04-09T23:33:28.682Z,41.92
2023-04-09T23:35:55.858Z,48.25
2023-04-09T23:38:23.339Z,42.90
2023-04-09T23:40:50.738Z,44.42
2023-04-09T23:43:18.008Z,44.03
2023-04-09T23:45:45.255Z,47.20
2023-04-09T23:48:12.664Z,43.08
2023-04-09T23:50:41.674Z,44.67
2023-04-09T23:53:08.861Z,54.45
2023-04-09T23:55:41.263Z,46.10
2023-04-09T23:58:08.503Z,45.38
